메인 페이지
METAR-TAF:

METAR-TAF

공항 :

콜럼버스, 조지아, 미국

위도: 32-30-58N, 경도: 084-56-32W, 고도: 121m

현재 날씨관측

예보는 21분 전, 00:51시(UTC)에 발표되었습니다.
서북서3kt
온도 28°C
습도 70%
기압 1016 hPa
시정: 16.1km
맑음

METAR: KCSG 150051Z 29003KT 10SM CLR 28/22 A3001 RMK AO2 SLP155 T02830217

시각: 21:12 (01:12 UTC)

예보

예보는 1 시간 31분 전, 23:41시(UTC)에 발표되었습니다.
예보 대상 시간: 15일 00시부터 15일 24시까지 (UTC)
서북서4kt
시정: 10km
고도 5000ft 상공 구름 조금
15일 0100시부터 (UTC)
kt
시정: 10km
고도 25000ft 상공 구름 조금
15일 0900시부터 (UTC)
kt
시정: 6.4km
고도 25000ft 상공 구름 조금
박무
15일 1300시부터 (UTC)
kt
시정: 10km
고도 25000ft 상공 구름 조금
15일 1600시부터 (UTC)
남남서3kt
시정: 10km
고도 4000ft 상공 구름 보통

TAF: KCSG 142341Z 1500/1524 30004KT P6SM FEW050 FM150100 00000KT P6SM FEW250 FM150900 00000KT 4SM BR FEW250 FM151300 00000KT P6SM FEW250 FM151600 20003KT P6SM SCT040

4,000개 이상의 공항 관측 자료 및 예보 (METAR 및 TAF 보고).

지도상에서 검색 가능한 기상관측소가 노란 점과 빨간 점으로 표시되어 있습니다.

기상관측소 명을 보려면 표시 위로 마우스를 이동하세요.

날씨 관측과 예보를 보려면 클릭하세요.

지도 변경 : 확대하려면 엑스 표시가 있는 녹색 버튼, 축소하려면 빼기 표시가 있는 녹색 버튼, 다음 페이지의 지도를 보려면 녹색 화살표를 클릭하세요.


METAR-TAF: